Time;durP1;ratioP1;P1;durP2;ratioP2;P2;SDS_P1;SDS_P2;PMS_P1;PMS_P2;Temp;Humidity;BMP_temperature;BMP_pressure;BME280_temperature;BME280_humidity;BME280_pressure;Samples;Min_cycle;Max_cycle;Signal;HPM_P1;HPM_P2
2022/02/05 00:01:47;;;;;;;35.50;14.15;;;;;;;;;;5029460;28;20049;-72
2022/02/05 00:04:05;;;;;;;26.63;10.70;;;;;;;;;;5023589;28;20049;-69
2022/02/05 00:06:35;;;;;;;23.45;8.25;;;;;;;;;;5017739;28;20109;-70
2022/02/05 00:38:36;;;;;;;4.70;1.92;;;;;;;;;;5028301;28;20124;-70
2022/02/05 00:41:14;;;;;;;7.10;2.58;;;;;;;;;;5016299;28;20112;-70
2022/02/05 00:43:48;;;;;;;21.00;8.15;;;;;;;;;;5022476;28;20022;-70
2022/02/05 00:46:14;;;;;;;19.02;7.53;;;;;;;;;;5027095;28;20048;-69
2022/02/05 00:48:40;;;;;;;24.27;8.60;;;;;;;;;;5016345;28;20395;-69
2022/02/05 00:51:15;;;;;;;18.77;7.20;;;;;;;;;;5026521;28;20026;-69
2022/02/05 00:53:43;;;;;;;19.17;7.78;;;;;;;;;;5021576;28;20025;-70
2022/02/05 00:58:38;;;;;;;17.90;6.45;;;;;;;;;;5029024;28;20383;-69
2022/02/05 01:01:04;;;;;;;7.10;3.45;;;;;;;;;;5015821;28;20022;-70
2022/02/05 01:03:30;;;;;;;6.32;2.88;;;;;;;;;;5023871;28;20018;-69
2022/02/05 01:05:56;;;;;;;14.00;4.22;;;;;;;;;;5024431;28;20025;-69
2022/02/05 01:08:24;;;;;;;10.27;3.30;;;;;;;;;;5017379;28;20022;-69
2022/02/05 01:10:50;;;;;;;6.78;2.50;;;;;;;;;;5027510;28;20044;-69
2022/02/05 01:13:16;;;;;;;10.07;5.00;;;;;;;;;;5017776;28;20479;-70
2022/02/05 01:16:24;;;;;;;10.18;4.35;;;;;;;;;;5022231;28;20026;-69
2022/02/05 01:18:37;;;;;;;11.35;3.95;;;;;;;;;;5026495;28;20028;-69
2022/02/05 01:23:56;;;;;;;10.15;3.38;;;;;;;;;;5074095;22;20049;-71
2022/02/05 01:26:35;;;;;;;6.72;2.30;;;;;;;;;;5056805;28;20049;-72
2022/02/05 01:29:06;;;;;;;3.25;1.38;;;;;;;;;;5040089;28;20024;-72
2022/02/05 01:31:48;;;;;;;;;;;;;;;;;;5061114;28;20052;-72
2022/02/05 01:34:21;;;;;;;;;;;;;;;;;;5046026;28;19912;-71
2022/02/05 01:50:30;;;;;;;6.75;2.13;;;;;;;;;;5046153;28;20102;-71
2022/02/05 01:58:11;;;;;;;9.45;3.10;;;;;;;;;;5043262;28;20102;-72
2022/02/05 02:06:14;;;;;;;7.03;2.95;;;;;;;;;;5044632;28;20083;-71
2022/02/05 02:11:54;;;;;;;5.97;2.60;;;;;;;;;;5042354;28;20522;-71
2022/02/05 02:27:37;;;;;;;6.88;2.67;;;;;;;;;;5038339;28;20029;-71
2022/02/05 02:30:17;;;;;;;5.28;2.42;;;;;;;;;;5038300;28;20138;-70
2022/02/05 02:32:47;;;;;;;13.30;5.22;;;;;;;;;;5047501;28;20099;-70
2022/02/05 02:35:19;;;;;;;10.45;3.58;;;;;;;;;;5037054;28;20020;-70
2022/02/05 02:37:48;;;;;;;8.65;3.25;;;;;;;;;;5040937;28;20479;-71
2022/02/05 02:40:37;;;;;;;3.75;1.70;;;;;;;;;;5044053;28;20032;-71
2022/02/05 02:43:09;;;;;;;5.30;2.17;;;;;;;;;;5019533;28;20021;-71
2022/02/05 02:45:35;;;;;;;6.35;2.75;;;;;;;;;;5042301;28;20030;-71
2022/02/05 02:48:01;;;;;;;11.48;2.92;;;;;;;;;;5043688;28;20033;-71
2022/02/05 02:50:33;;;;;;;16.42;4.45;;;;;;;;;;5036710;28;20104;-71
2022/02/05 02:58:31;;;;;;;6.13;2.17;;;;;;;;;;5051001;28;20032;-71
2022/02/05 03:00:59;;;;;;;9.40;2.80;;;;;;;;;;5021886;28;20013;-71
2022/02/05 03:03:26;;;;;;;10.05;3.33;;;;;;;;;;5045096;28;20013;-72
2022/02/05 03:05:52;;;;;;;11.60;3.42;;;;;;;;;;5045752;28;20036;-72
2022/02/05 03:08:18;;;;;;;8.60;2.90;;;;;;;;;;5040005;28;20399;-72
2022/02/05 03:10:43;;;;;;;9.15;3.20;;;;;;;;;;5050943;28;20052;-72
2022/02/05 03:13:09;;;;;;;7.50;2.10;;;;;;;;;;5039149;28;20021;-72
2022/02/05 03:15:38;;;;;;;6.25;2.20;;;;;;;;;;5045621;28;20025;-71
2022/02/05 03:18:08;;;;;;;11.80;3.28;;;;;;;;;;5047285;28;20021;-72
2022/02/05 03:20:34;;;;;;;14.80;4.68;;;;;;;;;;5037828;28;20014;-72
2022/02/05 03:23:01;;;;;;;19.73;5.93;;;;;;;;;;5040947;28;20122;-72
2022/02/05 03:25:31;;;;;;;7.07;2.15;;;;;;;;;;5046712;28;20025;-73
2022/02/05 03:27:58;;;;;;;14.05;2.97;;;;;;;;;;5046447;28;20029;-73
2022/02/05 03:30:24;;;;;;;12.20;3.33;;;;;;;;;;5038760;28;20025;-72
2022/02/05 03:32:50;;;;;;;6.32;2.45;;;;;;;;;;5049881;28;20032;-71
2022/02/05 03:35:16;;;;;;;8.52;3.05;;;;;;;;;;5040208;28;20554;-71
2022/02/05 03:37:43;;;;;;;8.50;2.78;;;;;;;;;;5043064;28;20395;-72
2022/02/05 03:40:09;;;;;;;7.60;2.58;;;;;;;;;;5046372;28;20035;-72
2022/02/05 03:42:35;;;;;;;11.02;4.07;;;;;;;;;;5036407;28;20036;-72
2022/02/05 03:45:01;;;;;;;8.13;2.55;;;;;;;;;;5049138;28;20014;-71
2022/02/05 03:47:31;;;;;;;4.30;2.03;;;;;;;;;;5041948;28;20100;-72
2022/02/05 03:49:57;;;;;;;10.45;2.85;;;;;;;;;;5041990;28;20022;-72
2022/02/05 03:52:23;;;;;;;3.53;1.88;;;;;;;;;;5049378;28;20104;-72
2022/02/05 03:54:49;;;;;;;9.35;3.40;;;;;;;;;;5036642;28;20108;-71
2022/02/05 03:57:15;;;;;;;7.55;2.03;;;;;;;;;;5046593;28;20013;-72
2022/02/05 03:59:41;;;;;;;14.50;4.88;;;;;;;;;;5043351;28;20447;-72
2022/02/05 04:02:07;;;;;;;10.55;3.72;;;;;;;;;;5038926;28;20097;-70
2022/02/05 04:04:33;;;;;;;8.30;2.80;;;;;;;;;;5049534;28;20028;-71
2022/02/05 04:07:00;;;;;;;6.82;2.38;;;;;;;;;;5037544;28;20053;-71
2022/02/05 04:09:33;;;;;;;7.63;3.30;;;;;;;;;;5046061;28;20025;-71
2022/02/05 04:17:28;;;;;;;8.20;2.63;;;;;;;;;;5045979;28;20025;-71
2022/02/05 04:19:54;;;;;;;10.68;4.10;;;;;;;;;;5044838;28;20125;-71
2022/02/05 04:22:20;;;;;;;8.90;3.25;;;;;;;;;;5038387;28;20519;-71
2022/02/05 04:24:46;;;;;;;6.95;2.45;;;;;;;;;;5049012;28;20033;-71
2022/02/05 04:27:13;;;;;;;7.03;2.20;;;;;;;;;;5038919;28;20013;-71
2022/02/05 04:29:39;;;;;;;6.90;2.72;;;;;;;;;;5044344;28;20033;-72
2022/02/05 04:32:05;;;;;;;12.02;4.05;;;;;;;;;;5045055;28;20074;-72
2022/02/05 04:34:31;;;;;;;4.55;2.55;;;;;;;;;;5036127;28;20045;-73
2022/02/05 04:36:59;;;;;;;6.63;2.58;;;;;;;;;;5049418;28;20519;-73
2022/02/05 04:39:25;;;;;;;9.25;3.30;;;;;;;;;;5040610;28;20435;-73
2022/02/05 04:41:58;;;;;;;5.03;2.75;;;;;;;;;;5041633;28;20045;-73
2022/02/05 04:49:42;;;;;;;10.30;3.90;;;;;;;;;;5045852;28;20038;-72
2022/02/05 04:52:28;;;;;;;11.45;4.35;;;;;;;;;;5045961;28;20029;-72
2022/02/05 04:57:50;;;;;;;12.43;3.30;;;;;;;;;;5043362;28;20028;-71
2022/02/05 05:03:23;;;;;;;4.57;1.90;;;;;;;;;;5035471;28;20164;-70
2022/02/05 05:08:45;;;;;;;9.50;2.80;;;;;;;;;;5048954;28;20070;-71
2022/02/05 05:21:39;;;;;;;8.05;2.30;;;;;;;;;;5042800;28;20089;-71
2022/02/05 05:24:05;;;;;;;5.90;2.25;;;;;;;;;;5044287;28;20036;-71
2022/02/05 05:26:31;;;;;;;5.97;1.98;;;;;;;;;;5035578;28;20037;-71
2022/02/05 05:28:57;;;;;;;8.55;3.42;;;;;;;;;;5048351;28;20025;-72
2022/02/05 05:31:23;;;;;;;7.80;2.95;;;;;;;;;;5038744;28;20394;-72
2022/02/05 05:33:49;;;;;;;6.72;2.63;;;;;;;;;;5040371;28;20047;-72
2022/02/05 05:36:14;;;;;;;8.82;2.80;;;;;;;;;;5046307;28;20067;-72
2022/02/05 05:38:40;;;;;;;6.20;2.60;;;;;;;;;;5035215;28;20450;-70
2022/02/05 05:41:08;;;;;;;8.40;3.67;;;;;;;;;;5045625;28;20024;-71
2022/02/05 05:43:48;;;;;;;11.65;3.85;;;;;;;;;;5039893;28;20021;-70
2022/02/05 05:46:30;;;;;;;8.35;3.03;;;;;;;;;;5037457;28;20368;-71
2022/02/05 05:48:59;;;;;;;6.93;3.55;;;;;;;;;;5048319;28;20064;-72
2022/02/05 05:51:25;;;;;;;8.97;3.50;;;;;;;;;;5039016;28;20078;-72
2022/02/05 05:53:51;;;;;;;6.28;1.85;;;;;;;;;;5039970;28;20057;-72
2022/02/05 05:56:20;;;;;;;8.52;2.40;;;;;;;;;;5045896;28;20590;-71
2022/02/05 05:58:46;;;;;;;6.00;2.50;;;;;;;;;;5033749;28;20074;-71
2022/02/05 06:01:12;;;;;;;5.43;3.05;;;;;;;;;;5046093;28;20096;-72
2022/02/05 06:03:38;;;;;;;11.05;4.00;;;;;;;;;;5040063;28;20025;-71
2022/02/05 06:06:04;;;;;;;4.03;2.65;;;;;;;;;;5038530;28;20026;-72
2022/02/05 06:08:30;;;;;;;9.38;3.10;;;;;;;;;;5047950;28;20159;-71
2022/02/05 06:10:56;;;;;;;6.25;2.45;;;;;;;;;;5033676;28;20021;-70
2022/02/05 06:13:22;;;;;;;8.95;3.00;;;;;;;;;;5043430;28;20461;-70
2022/02/05 06:15:51;;;;;;;8.85;2.65;;;;;;;;;;5040260;28;20116;-70
2022/02/05 06:18:16;;;;;;;7.13;4.13;;;;;;;;;;5036767;28;20456;-69
2022/02/05 06:20:42;;;;;;;7.50;3.22;;;;;;;;;;5047860;28;20025;-70
2022/02/05 06:23:08;;;;;;;6.13;2.22;;;;;;;;;;5035353;28;20383;-70
2022/02/05 06:25:35;;;;;;;7.57;2.80;;;;;;;;;;5046474;28;20403;-71
2022/02/05 06:28:01;;;;;;;6.25;3.78;;;;;;;;;;5047977;28;20025;-72
2022/02/05 06:30:28;;;;;;;5.63;2.63;;;;;;;;;;5039653;28;20021;-72
2022/02/05 06:32:54;;;;;;;7.68;2.55;;;;;;;;;;5049833;28;20029;-72
2022/02/05 06:35:21;;;;;;;10.35;3.28;;;;;;;;;;5042194;28;20023;-72
2022/02/05 06:37:47;;;;;;;4.32;2.65;;;;;;;;;;5043387;28;20021;-72
2022/02/05 06:40:13;;;;;;;7.53;3.15;;;;;;;;;;5049293;28;20033;-72
2022/02/05 06:42:39;;;;;;;6.38;3.17;;;;;;;;;;5038272;28;20036;-71
2022/02/05 06:45:05;;;;;;;6.72;2.80;;;;;;;;;;5049966;28;20515;-72
2022/02/05 06:47:31;;;;;;;7.97;3.08;;;;;;;;;;5043687;28;20048;-72
2022/02/05 06:49:57;;;;;;;6.90;2.85;;;;;;;;;;5043220;28;20104;-72
2022/02/05 06:52:23;;;;;;;8.45;2.17;;;;;;;;;;5050212;28;20112;-72
2022/02/05 06:54:49;;;;;;;5.65;2.40;;;;;;;;;;5037555;28;20028;-72
2022/02/05 06:57:15;;;;;;;8.73;2.03;;;;;;;;;;5048830;28;20105;-72
2022/02/05 06:59:41;;;;;;;6.85;2.67;;;;;;;;;;5044602;28;20356;-71
2022/02/05 07:02:07;;;;;;;5.25;2.35;;;;;;;;;;5041412;28;20036;-73
2022/02/05 07:04:33;;;;;;;5.53;2.65;;;;;;;;;;5050816;28;20451;-72
2022/02/05 07:06:59;;;;;;;5.65;2.20;;;;;;;;;;5037125;28;20479;-72
2022/02/05 07:09:27;;;;;;;6.88;2.50;;;;;;;;;;5045734;28;20025;-72
2022/02/05 07:11:56;;;;;;;6.93;2.22;;;;;;;;;;5045951;28;20047;-71
2022/02/05 07:14:26;;;;;;;7.47;3.13;;;;;;;;;;5038704;28;20048;-72
2022/02/05 07:17:03;;;;;;;4.25;2.22;;;;;;;;;;5049479;28;20017;-71
2022/02/05 07:19:48;;;;;;;5.70;2.30;;;;;;;;;;5042395;28;20497;-71
2022/02/05 07:22:14;;;;;;;5.25;2.88;;;;;;;;;;5056500;23;20080;-69
2022/02/05 07:29:57;;;;;;;6.05;2.35;;;;;;;;;;5022637;28;20033;-67
2022/02/05 07:32:24;;;;;;;5.03;2.70;;;;;;;;;;5026338;28;20034;-70
2022/02/05 07:34:50;;;;;;;6.20;2.53;;;;;;;;;;5013179;28;20491;-73
2022/02/05 07:37:17;;;;;;;5.68;2.20;;;;;;;;;;5031766;28;20021;-70
2022/02/05 07:39:47;;;;;;;8.40;2.42;;;;;;;;;;5025624;28;20018;-69
2022/02/05 07:42:13;;;;;;;19.30;8.07;;;;;;;;;;5014136;28;20424;-73
2022/02/05 07:44:39;;;;;;;118.95;45.45;;;;;;;;;;5029975;28;20502;-73
2022/02/05 07:47:05;;;;;;;82.65;31.45;;;;;;;;;;5017948;28;20043;-72
2022/02/05 07:49:41;;;;;;;52.58;19.58;;;;;;;;;;5026856;28;21480;-72
2022/02/05 07:52:08;;;;;;;45.85;18.45;;;;;;;;;;5025730;28;20071;-72
2022/02/05 07:54:34;;;;;;;20.95;7.30;;;;;;;;;;5017645;28;20104;-68
2022/02/05 07:57:01;;;;;;;41.05;15.20;;;;;;;;;;5030307;28;20021;-71
2022/02/05 07:59:27;;;;;;;43.20;16.65;;;;;;;;;;5020478;28;20490;-72
2022/02/05 08:01:53;;;;;;;32.38;11.93;;;;;;;;;;5023669;28;20080;-71
2022/02/05 08:04:19;;;;;;;41.88;15.85;;;;;;;;;;5026718;28;20129;-72
2022/02/05 08:06:46;;;;;;;16.42;6.85;;;;;;;;;;5017315;28;20496;-71
2022/02/05 08:12:00;;;;;;;12.70;5.43;;;;;;;;;;5022643;28;20030;-70
2022/02/05 08:14:28;;;;;;;17.35;6.75;;;;;;;;;;5018246;28;20080;-72
2022/02/05 08:19:20;;;;;;;56.53;22.33;;;;;;;;;;5018769;28;20503;-67
2022/02/05 08:21:46;;;;;;;34.92;13.07;;;;;;;;;;5024000;28;20034;-67
2022/02/05 08:24:12;;;;;;;13.15;5.57;;;;;;;;;;5025461;28;20131;-72
2022/02/05 08:26:38;;;;;;;13.07;5.63;;;;;;;;;;5017038;28;20249;-69
2022/02/05 08:29:05;;;;;;;25.25;9.55;;;;;;;;;;5012320;28;20073;-72
2022/02/05 08:31:31;;;;;;;16.50;5.88;;;;;;;;;;5016501;28;20025;-70
2022/02/05 08:33:57;;;;;;;30.10;12.48;;;;;;;;;;5024221;28;20025;-72
2022/02/05 08:36:24;;;;;;;39.17;12.00;;;;;;;;;;5023144;28;20104;-72
2022/02/05 08:38:54;;;;;;;18.38;7.38;;;;;;;;;;5019182;28;20025;-71
2022/02/05 08:41:20;;;;;;;19.20;6.45;;;;;;;;;;5025285;28;20018;-72
2022/02/05 08:43:46;;;;;;;20.60;7.90;;;;;;;;;;5027387;28;20076;-71
2022/02/05 08:46:12;;;;;;;24.10;8.98;;;;;;;;;;5022156;28;20056;-73
2022/02/05 08:48:38;;;;;;;19.13;5.65;;;;;;;;;;5019603;28;20081;-70
2022/02/05 08:51:05;;;;;;;15.88;7.07;;;;;;;;;;5028846;28;20025;-72
2022/02/05 08:53:31;;;;;;;34.65;13.77;;;;;;;;;;5011836;28;20022;-68
2022/02/05 08:55:58;;;;;;;19.27;7.15;;;;;;;;;;5020018;28;20045;-69
2022/02/05 08:58:25;;;;;;;15.27;5.97;;;;;;;;;;5022057;28;20032;-69
2022/02/05 09:01:05;;;;;;;34.92;15.82;;;;;;;;;;5026598;28;20025;-70
2022/02/05 09:03:38;;;;;;;62.05;24.75;;;;;;;;;;5027473;28;20029;-71
2022/02/05 09:06:05;;;;;;;34.22;13.00;;;;;;;;;;5020612;28;20075;-70
2022/02/05 09:08:37;;;;;;;40.05;15.18;;;;;;;;;;5032751;28;20049;-70
2022/02/05 09:11:14;;;;;;;36.83;14.50;;;;;;;;;;5033114;28;20375;-71
2022/02/05 09:16:09;;;;;;;19.70;8.13;;;;;;;;;;5009044;28;20060;-70
2022/02/05 09:18:36;;;;;;;34.75;14.77;;;;;;;;;;5021223;28;20033;-72
2022/02/05 09:21:02;;;;;;;12.88;6.72;;;;;;;;;;5026430;28;20022;-71
2022/02/05 09:23:28;;;;;;;40.70;17.65;;;;;;;;;;5014853;28;20118;-69
2022/02/05 09:25:54;;;;;;;22.50;9.43;;;;;;;;;;5026854;28;20104;-70
2022/02/05 09:28:21;;;;;;;21.58;8.85;;;;;;;;;;5022088;28;20063;-70
2022/02/05 09:31:13;;;;;;;31.83;14.45;;;;;;;;;;5018665;28;20064;-73
2022/02/05 09:33:40;;;;;;;19.00;7.88;;;;;;;;;;4998916;28;20078;-71
2022/02/05 09:36:07;;;;;;;29.55;11.82;;;;;;;;;;5023875;28;20479;-71
2022/02/05 09:38:36;;;;;;;19.80;7.25;;;;;;;;;;5022352;28;20025;-71
2022/02/05 09:41:02;;;;;;;9.63;4.20;;;;;;;;;;5016211;28;20087;-70
2022/02/05 09:43:30;;;;;;;21.00;8.25;;;;;;;;;;5027621;28;20213;-69
2022/02/05 09:45:57;;;;;;;18.83;7.25;;;;;;;;;;5018901;28;20038;-72
2022/02/05 09:48:24;;;;;;;14.18;5.40;;;;;;;;;;5022611;28;20030;-71
2022/02/05 09:50:50;;;;;;;16.10;5.65;;;;;;;;;;5026411;28;20467;-72
2022/02/05 09:53:19;;;;;;;16.67;5.93;;;;;;;;;;5014556;28;20033;-68
2022/02/05 09:55:47;;;;;;;8.63;3.42;;;;;;;;;;5027046;28;20030;-70
2022/02/05 09:58:13;;;;;;;61.50;26.45;;;;;;;;;;5021199;28;20116;-71
2022/02/05 10:00:40;;;;;;;38.30;14.18;;;;;;;;;;5019748;28;20121;-73
2022/02/05 10:03:23;;;;;;;21.27;9.27;;;;;;;;;;5027248;28;20026;-73
2022/02/05 10:06:03;;;;;;;18.77;7.22;;;;;;;;;;4999688;28;20446;-72
2022/02/05 10:08:29;;;;;;;18.33;8.02;;;;;;;;;;5021136;28;20037;-72
2022/02/05 10:10:59;;;;;;;27.35;12.23;;;;;;;;;;5027532;28;20021;-73
2022/02/05 10:13:27;;;;;;;28.02;12.77;;;;;;;;;;5013983;28;20411;-74
2022/02/05 10:15:54;;;;;;;23.05;8.25;;;;;;;;;;5026420;28;20026;-72
2022/02/05 10:18:24;;;;;;;34.45;14.10;;;;;;;;;;5022523;28;20096;-73
2022/02/05 10:20:51;;;;;;;31.43;10.90;;;;;;;;;;5018328;28;20029;-75
2022/02/05 10:23:17;;;;;;;29.10;12.25;;;;;;;;;;5027039;28;20029;-73
2022/02/05 10:25:42;;;;;;;29.50;12.93;;;;;;;;;;5017051;28;20025;-72
2022/02/05 10:28:12;;;;;;;18.20;8.27;;;;;;;;;;5024333;28;20026;-72
2022/02/05 10:30:43;;;;;;;18.50;6.88;;;;;;;;;;5024439;28;20030;-71
2022/02/05 10:33:18;;;;;;;14.45;5.55;;;;;;;;;;5013127;28;20038;-72
2022/02/05 10:35:57;;;;;;;12.35;4.97;;;;;;;;;;5025708;28;20048;-74
2022/02/05 10:39:08;;;;;;;15.90;6.22;;;;;;;;;;5021790;28;20501;-71
2022/02/05 10:44:12;;;;;;;24.50;9.15;;;;;;;;;;5023418;28;20079;-70
2022/02/05 10:46:42;;;;;;;24.90;9.65;;;;;;;;;;5023826;28;20021;-73
2022/02/05 10:49:09;;;;;;;26.67;10.90;;;;;;;;;;5012969;28;20025;-71
2022/02/05 10:51:47;;;;;;;18.25;7.13;;;;;;;;;;5027975;28;20145;-69
2022/02/05 10:54:31;;;;;;;15.85;5.78;;;;;;;;;;5019802;28;20037;-71
2022/02/05 10:57:10;;;;;;;27.13;12.43;;;;;;;;;;5016186;28;20022;-73
2022/02/05 11:05:49;;;;;;;113.18;42.72;;;;;;;;;;5023399;28;20044;-71
2022/02/05 11:08:16;;;;;;;58.20;21.45;;;;;;;;;;5019415;28;20033;-72
2022/02/05 11:21:23;;;;;;;45.15;17.90;;;;;;;;;;5018179;28;20365;-71
2022/02/05 11:23:56;;;;;;;52.10;19.67;;;;;;;;;;5028196;28;20032;-70
2022/02/05 11:26:22;;;;;;;14.80;6.05;;;;;;;;;;5024969;28;20399;-72
2022/02/05 11:28:49;;;;;;;50.85;20.42;;;;;;;;;;5021704;28;20037;-72
2022/02/05 11:31:19;;;;;;;71.22;29.40;;;;;;;;;;5030893;28;20075;-73
2022/02/05 11:33:46;;;;;;;77.00;29.08;;;;;;;;;;5018834;28;20063;-73
2022/02/05 11:38:42;;;;;;;39.50;15.65;;;;;;;;;;5027408;28;20034;-71
2022/02/05 11:41:23;;;;;;;30.38;12.98;;;;;;;;;;5016456;28;20459;-70
2022/02/05 11:44:09;;;;;;;10.80;3.47;;;;;;;;;;5018847;28;20479;-70
2022/02/05 11:46:35;;;;;;;66.38;25.33;;;;;;;;;;5022069;28;20088;-68
2022/02/05 11:49:05;;;;;;;45.33;15.98;;;;;;;;;;5029500;28;20091;-71
2022/02/05 11:51:36;;;;;;;39.53;16.08;;;;;;;;;;5017522;28;20025;-71
2022/02/05 11:54:05;;;;;;;;;;;;;;;;;;5026258;28;20435;-73
2022/02/05 11:57:01;;;;;;;54.15;19.77;;;;;;;;;;5025657;28;19905;-71
2022/02/05 11:59:31;;;;;;;41.28;16.25;;;;;;;;;;5014194;28;20022;-71
2022/02/05 12:02:12;;;;;;;10.00;4.45;;;;;;;;;;5027208;28;20046;-71
2022/02/05 12:04:38;;;;;;;39.05;15.07;;;;;;;;;;5025790;28;20029;-70
2022/02/05 12:07:06;;;;;;;12.27;4.95;;;;;;;;;;5017500;28;20038;-72
2022/02/05 12:09:46;;;;;;;28.05;11.45;;;;;;;;;;5030193;28;20022;-71
2022/02/05 12:12:35;;;;;;;26.40;8.73;;;;;;;;;;5022583;28;20025;-73
2022/02/05 12:15:07;;;;;;;28.00;10.48;;;;;;;;;;5018465;28;20388;-73
2022/02/05 12:21:12;;;;;;;39.35;15.07;;;;;;;;;;5025532;28;20098;-70
2022/02/05 12:26:13;;;;;;;38.10;14.48;;;;;;;;;;5024589;28;20060;-70
2022/02/05 12:28:40;;;;;;;19.92;8.20;;;;;;;;;;5025920;28;20029;-67
2022/02/05 12:31:36;;;;;;;22.60;9.45;;;;;;;;;;5016845;28;20048;-68
2022/02/05 12:34:07;;;;;;;25.33;10.70;;;;;;;;;;5007756;28;20052;-70
2022/02/05 12:36:34;;;;;;;33.38;11.00;;;;;;;;;;5021281;28;20018;-68
2022/02/05 12:39:02;;;;;;;10.13;4.25;;;;;;;;;;5028404;28;20034;-69
2022/02/05 12:41:30;;;;;;;28.60;11.40;;;;;;;;;;5017023;28;20021;-67
2022/02/05 12:43:57;;;;;;;16.27;5.68;;;;;;;;;;5025530;28;20499;-68
2022/02/05 12:46:26;;;;;;;21.05;7.20;;;;;;;;;;5023408;28;20025;-71
2022/02/05 12:48:58;;;;;;;28.30;11.43;;;;;;;;;;5018524;28;20408;-71
2022/02/05 12:51:25;;;;;;;36.00;14.35;;;;;;;;;;5028153;28;20106;-69
2022/02/05 12:53:51;;;;;;;37.13;15.52;;;;;;;;;;5017926;28;20030;-68
2022/02/05 12:56:18;;;;;;;41.42;16.20;;;;;;;;;;5023540;28;20026;-70
2022/02/05 12:58:54;;;;;;;47.30;17.42;;;;;;;;;;5023798;28;20021;-70
2022/02/05 13:01:20;;;;;;;72.13;30.52;;;;;;;;;;5016125;28;20013;-71
2022/02/05 13:03:46;;;;;;;194.25;69.97;;;;;;;;;;5027031;28;20030;-70
2022/02/05 13:06:18;;;;;;;60.50;22.52;;;;;;;;;;5021221;28;20083;-70
2022/02/05 13:08:45;;;;;;;20.95;7.47;;;;;;;;;;5018042;28;20262;-70
2022/02/05 13:11:11;;;;;;;83.95;33.53;;;;;;;;;;5028720;28;20074;-68
2022/02/05 13:13:37;;;;;;;41.15;15.48;;;;;;;;;;5015492;28;20475;-66
2022/02/05 13:16:04;;;;;;;44.30;16.42;;;;;;;;;;5024858;28;20097;-67
2022/02/05 13:18:43;;;;;;;31.67;11.18;;;;;;;;;;5023550;28;20033;-68
2022/02/05 13:26:58;;;;;;;49.75;20.58;;;;;;;;;;5002076;28;20046;-74
2022/02/05 13:29:39;;;;;;;24.95;9.68;;;;;;;;;;5009918;28;20125;-74
2022/02/05 13:34:50;;;;;;;21.77;8.35;;;;;;;;;;4998583;28;20036;-74
2022/02/05 13:37:26;;;;;;;59.33;24.73;;;;;;;;;;5010230;28;20104;-74
2022/02/05 13:40:01;;;;;;;30.20;12.02;;;;;;;;;;4998570;28;20052;-75
2022/02/05 13:42:30;;;;;;;40.55;14.52;;;;;;;;;;5006725;28;20504;-75
2022/02/05 13:45:01;;;;;;;27.80;10.68;;;;;;;;;;4997399;28;20030;-76
2022/02/05 13:47:49;;;;;;;52.92;20.02;;;;;;;;;;5010333;28;20022;-75
2022/02/05 13:50:20;;;;;;;28.20;11.02;;;;;;;;;;5002117;28;20144;-75
2022/02/05 13:52:51;;;;;;;26.67;9.77;;;;;;;;;;5011997;28;20022;-75
2022/02/05 13:55:25;;;;;;;33.33;13.25;;;;;;;;;;5000223;28;20050;-73
2022/02/05 13:58:04;;;;;;;45.35;17.67;;;;;;;;;;5011097;28;20077;-72
2022/02/05 14:00:37;;;;;;;26.35;9.77;;;;;;;;;;5003025;28;20080;-74
2022/02/05 14:03:05;;;;;;;31.55;12.48;;;;;;;;;;4995509;28;20034;-74
2022/02/05 14:05:31;;;;;;;29.92;11.57;;;;;;;;;;5009819;28;20026;-73
2022/02/05 14:07:57;;;;;;;27.10;10.63;;;;;;;;;;5000377;28;20333;-74
2022/02/05 14:10:24;;;;;;;30.15;12.70;;;;;;;;;;5002528;28;20551;-75
2022/02/05 14:12:52;;;;;;;10.30;2.83;;;;;;;;;;5006247;28;20022;-73
2022/02/05 14:15:18;;;;;;;11.10;3.78;;;;;;;;;;4996491;28;20106;-74
2022/02/05 14:17:48;;;;;;;15.70;6.30;;;;;;;;;;5008300;28;20026;-74
2022/02/05 14:20:15;;;;;;;26.33;9.10;;;;;;;;;;5001491;28;20022;-74
2022/02/05 14:22:45;;;;;;;21.73;8.00;;;;;;;;;;5000313;28;20030;-74
2022/02/05 14:25:19;;;;;;;20.40;7.30;;;;;;;;;;5007633;28;20487;-74
2022/02/05 14:28:16;;;;;;;23.13;9.00;;;;;;;;;;4998255;28;20041;-73
2022/02/05 14:30:55;;;;;;;17.73;6.82;;;;;;;;;;5000069;28;20492;-73
2022/02/05 14:33:24;;;;;;;25.63;9.93;;;;;;;;;;5007014;28;20034;-74
2022/02/05 14:41:06;;;;;;;12.50;4.30;;;;;;;;;;5003008;28;20567;-74
2022/02/05 14:43:32;;;;;;;7.68;3.00;;;;;;;;;;5008339;28;20026;-75
2022/02/05 14:45:58;;;;;;;27.00;10.57;;;;;;;;;;4999237;28;20022;-74
2022/02/05 14:48:24;;;;;;;32.03;11.90;;;;;;;;;;5006191;28;20400;-74
2022/02/05 14:50:52;;;;;;;35.33;13.98;;;;;;;;;;5010966;28;20538;-73
2022/02/05 14:53:18;;;;;;;14.52;5.82;;;;;;;;;;5000207;28;20472;-74
2022/02/05 14:55:44;;;;;;;15.18;5.95;;;;;;;;;;5012082;28;20025;-74
2022/02/05 14:58:10;;;;;;;19.88;7.90;;;;;;;;;;5005531;28;20030;-74
2022/02/05 15:00:36;;;;;;;23.25;9.57;;;;;;;;;;5002313;28;20034;-74
2022/02/05 15:03:04;;;;;;;34.15;12.65;;;;;;;;;;5011299;28;20463;-74
2022/02/05 15:05:31;;;;;;;21.85;8.88;;;;;;;;;;4999326;28;20026;-73
2022/02/05 15:07:57;;;;;;;19.38;6.78;;;;;;;;;;5008434;28;20495;-74
2022/02/05 15:10:23;;;;;;;16.75;6.35;;;;;;;;;;5005200;28;20072;-74
2022/02/05 15:12:50;;;;;;;16.45;6.28;;;;;;;;;;5001945;28;20036;-74
2022/02/05 15:15:21;;;;;;;23.13;8.00;;;;;;;;;;5012794;28;20061;-74
2022/02/05 15:17:47;;;;;;;18.27;7.43;;;;;;;;;;5002110;28;20484;-73
2022/02/05 15:20:15;;;;;;;23.13;9.60;;;;;;;;;;5007255;28;20077;-74
2022/02/05 15:22:41;;;;;;;10.05;3.60;;;;;;;;;;5007074;28;20046;-74
2022/02/05 15:25:11;;;;;;;22.92;9.25;;;;;;;;;;4999139;28;20026;-74
2022/02/05 15:27:37;;;;;;;19.33;6.97;;;;;;;;;;4984132;28;20097;-74
2022/02/05 15:30:04;;;;;;;11.40;4.82;;;;;;;;;;5006613;28;20173;-75
2022/02/05 15:32:30;;;;;;;19.27;7.63;;;;;;;;;;5007726;28;20026;-74
2022/02/05 15:34:56;;;;;;;16.52;6.10;;;;;;;;;;5000004;28;20124;-72
2022/02/05 15:37:24;;;;;;;36.05;14.35;;;;;;;;;;5011659;28;20112;-72
2022/02/05 15:45:13;;;;;;;8.63;3.35;;;;;;;;;;4998532;28;20093;-72
2022/02/05 15:47:42;;;;;;;11.30;4.32;;;;;;;;;;5010987;28;20029;-72
2022/02/05 15:50:11;;;;;;;23.92;8.75;;;;;;;;;;5003817;28;20141;-73
2022/02/05 15:52:37;;;;;;;32.97;13.20;;;;;;;;;;5002878;28;20030;-72
2022/02/05 15:55:04;;;;;;;14.75;5.88;;;;;;;;;;5010294;28;20022;-73
2022/02/05 16:00:20;;;;;;;17.73;6.40;;;;;;;;;;5005370;28;20058;-72
2022/02/05 16:02:47;;;;;;;9.32;3.08;;;;;;;;;;5007904;28;20021;-73
2022/02/05 16:05:13;;;;;;;19.77;7.03;;;;;;;;;;4996767;28;20053;-73
2022/02/05 16:07:38;;;;;;;17.92;6.07;;;;;;;;;;5010866;28;20033;-74
2022/02/05 16:10:05;;;;;;;8.57;3.35;;;;;;;;;;5002852;28;20030;-73
2022/02/05 16:12:31;;;;;;;29.35;10.10;;;;;;;;;;5003021;28;20038;-72
2022/02/05 16:14:57;;;;;;;16.23;6.15;;;;;;;;;;5006592;28;20407;-72
2022/02/05 16:17:22;;;;;;;12.27;4.00;;;;;;;;;;4997781;28;20062;-73
2022/02/05 16:19:49;;;;;;;11.23;4.90;;;;;;;;;;5009400;28;20022;-73
2022/02/05 16:22:15;;;;;;;15.52;5.32;;;;;;;;;;5004633;28;20056;-72
2022/02/05 16:24:41;;;;;;;10.40;4.55;;;;;;;;;;5001403;28;20034;-73
2022/02/05 16:27:07;;;;;;;6.20;2.67;;;;;;;;;;5011335;28;20041;-72
2022/02/05 16:29:33;;;;;;;6.43;2.28;;;;;;;;;;4982779;28;20177;-72
2022/02/05 16:32:00;;;;;;;13.45;5.80;;;;;;;;;;5007384;28;20499;-72
2022/02/05 16:34:29;;;;;;;15.32;6.35;;;;;;;;;;5003818;28;20600;-73
2022/02/05 16:36:55;;;;;;;6.32;2.22;;;;;;;;;;5000738;28;20046;-72
2022/02/05 16:39:26;;;;;;;6.05;2.22;;;;;;;;;;5011452;28;20026;-72
2022/02/05 16:41:52;;;;;;;16.95;5.57;;;;;;;;;;5001052;28;20029;-73
2022/02/05 16:44:18;;;;;;;9.18;3.17;;;;;;;;;;5004208;28;20030;-73
2022/02/05 16:46:49;;;;;;;9.43;4.32;;;;;;;;;;5007374;28;20034;-72
2022/02/05 16:49:15;;;;;;;9.77;2.85;;;;;;;;;;4997076;28;20133;-72
2022/02/05 16:51:44;;;;;;;18.60;6.68;;;;;;;;;;5009780;28;20023;-73
2022/02/05 16:54:10;;;;;;;13.82;4.63;;;;;;;;;;5002042;28;20026;-72
2022/02/05 16:56:36;;;;;;;8.10;3.42;;;;;;;;;;5002435;28;20034;-73
2022/02/05 16:59:03;;;;;;;9.85;3.63;;;;;;;;;;5008727;28;20058;-72
2022/02/05 17:01:30;;;;;;;31.13;10.90;;;;;;;;;;4997325;28;20120;-73
2022/02/05 17:03:59;;;;;;;21.30;8.50;;;;;;;;;;5006775;28;20117;-72
2022/02/05 17:06:27;;;;;;;10.80;4.40;;;;;;;;;;5006226;28;20037;-73
2022/02/05 17:08:55;;;;;;;18.83;6.93;;;;;;;;;;4998770;28;20050;-72
2022/02/05 17:11:21;;;;;;;15.65;6.93;;;;;;;;;;5009995;28;20065;-74
2022/02/05 17:13:47;;;;;;;13.13;4.57;;;;;;;;;;4998496;28;20033;-73
2022/02/05 17:16:17;;;;;;;16.70;5.80;;;;;;;;;;5005024;28;20046;-72
2022/02/05 17:18:43;;;;;;;17.75;7.07;;;;;;;;;;5006019;28;20030;-70
2022/02/05 17:21:09;;;;;;;6.10;2.70;;;;;;;;;;4996108;28;20030;-70
2022/02/05 17:23:36;;;;;;;6.65;2.50;;;;;;;;;;5008445;28;20463;-72
2022/02/05 17:26:12;;;;;;;14.73;5.07;;;;;;;;;;5000286;28;20077;-72
2022/02/05 17:28:38;;;;;;;8.63;3.30;;;;;;;;;;5001813;28;20377;-72
2022/02/05 17:31:04;;;;;;;9.30;2.60;;;;;;;;;;5009337;28;20506;-72
2022/02/05 17:33:30;;;;;;;6.82;2.85;;;;;;;;;;4996220;28;20033;-71
2022/02/05 17:36:04;;;;;;;15.70;6.32;;;;;;;;;;5007032;28;20380;-71